createdAt,value
2022-10-31T00:00:57.482Z,29.97
2022-10-31T00:03:31.612Z,30.27
2022-10-31T00:06:05.831Z,29.23
2022-10-31T00:08:40.817Z,30.33
2022-10-31T00:11:15.574Z,31.93
2022-10-31T00:13:48.457Z,31.43
2022-10-31T00:16:21.912Z,31.93
2022-10-31T00:18:56.689Z,30.73
2022-10-31T00:21:29.558Z,30.37
2022-10-31T00:24:02.558Z,31.37
2022-10-31T00:26:35.237Z,29.60
2022-10-31T00:29:08.083Z,30.17
2022-10-31T00:31:40.739Z,29.97
2022-10-31T00:34:14.747Z,29.97
2022-10-31T00:36:49.208Z,30.50
2022-10-31T00:39:22.911Z,30.00
2022-10-31T00:41:55.479Z,27.73
2022-10-31T00:44:28.300Z,30.50
2022-10-31T00:47:03.993Z,30.43
2022-10-31T00:49:38.051Z,28.23
2022-10-31T00:52:10.654Z,29.83
2022-10-31T00:54:43.495Z,28.83
2022-10-31T00:57:16.167Z,30.07
2022-10-31T00:59:49.763Z,30.20
2022-10-31T01:02:22.591Z,28.40
2022-10-31T01:04:58.969Z,27.97
2022-10-31T01:07:31.584Z,28.07
2022-10-31T01:10:04.670Z,28.00
2022-10-31T01:12:38.060Z,27.93
2022-10-31T01:15:11.940Z,27.37
2022-10-31T01:17:44.540Z,28.10
2022-10-31T01:20:20.719Z,27.30
2022-10-31T01:22:53.578Z,27.73
2022-10-31T01:25:26.298Z,25.97
2022-10-31T01:28:02.176Z,26.03
2022-10-31T01:30:35.008Z,25.93
2022-10-31T01:33:07.580Z,26.03
2022-10-31T01:35:42.158Z,25.03
2022-10-31T01:38:17.379Z,23.23
2022-10-31T01:40:49.901Z,23.63
2022-10-31T01:43:22.637Z,24.73
2022-10-31T01:45:56.036Z,23.83
2022-10-31T01:48:32.187Z,23.47
2022-10-31T01:51:07.348Z,22.73
2022-10-31T01:53:41.298Z,22.53
2022-10-31T01:56:14.971Z,23.00
2022-10-31T01:58:48.216Z,21.37
2022-10-31T02:01:21.142Z,23.53
2022-10-31T02:03:54.025Z,21.97
2022-10-31T02:06:34.471Z,22.03
2022-10-31T02:09:09.377Z,21.57
2022-10-31T02:11:42.209Z,21.10
2022-10-31T02:14:18.168Z,20.33
2022-10-31T02:16:50.950Z,20.23
2022-10-31T02:19:26.720Z,18.50
2022-10-31T02:22:04.290Z,19.20
2022-10-31T02:24:54.481Z,19.40
2022-10-31T02:27:41.635Z,19.53
2022-10-31T02:30:17.966Z,20.10
2022-10-31T02:33:08.259Z,19.57
2022-10-31T02:35:49.635Z,20.57
2022-10-31T02:38:26.927Z,19.67
2022-10-31T02:41:03.427Z,19.23
2022-10-31T02:43:42.389Z,18.87
2022-10-31T02:46:16.979Z,19.53
2022-10-31T02:48:55.133Z,19.33
2022-10-31T02:51:28.083Z,20.07
2022-10-31T02:54:03.174Z,19.40
2022-10-31T02:56:35.701Z,19.77
2022-10-31T02:59:14.190Z,20.13
2022-10-31T03:02:02.167Z,19.40
2022-10-31T03:04:59.014Z,19.27
2022-10-31T03:07:41.095Z,20.00
2022-10-31T03:10:16.933Z,19.30
2022-10-31T03:12:52.318Z,19.97
2022-10-31T03:15:27.576Z,18.93
2022-10-31T03:18:06.338Z,18.73
2022-10-31T03:20:41.155Z,20.17
2022-10-31T03:23:17.021Z,20.10
2022-10-31T03:25:50.424Z,20.00
2022-10-31T03:28:25.787Z,18.27
2022-10-31T03:31:00.412Z,17.13
2022-10-31T03:33:36.587Z,18.63
2022-10-31T03:36:10.255Z,18.23
2022-10-31T03:38:44.571Z,18.07
2022-10-31T03:41:20.162Z,17.00
2022-10-31T03:43:56.237Z,17.50
2022-10-31T03:46:29.007Z,18.00
2022-10-31T03:49:01.770Z,16.73
2022-10-31T03:51:39.135Z,17.40
2022-10-31T03:54:15.773Z,16.30
2022-10-31T03:56:52.109Z,16.70
2022-10-31T03:59:26.772Z,16.57
2022-10-31T04:02:02.377Z,17.03
2022-10-31T04:04:35.471Z,16.83
2022-10-31T04:07:08.907Z,16.93
2022-10-31T04:09:45.320Z,16.90
2022-10-31T04:12:18.475Z,16.33
2022-10-31T04:14:53.390Z,16.20
2022-10-31T04:17:33.512Z,16.87
2022-10-31T04:20:06.747Z,15.93
2022-10-31T04:22:39.583Z,16.50
2022-10-31T04:25:15.998Z,15.17
2022-10-31T04:27:48.600Z,16.03
2022-10-31T04:30:21.196Z,15.23
2022-10-31T04:32:53.776Z,16.20
2022-10-31T04:35:26.346Z,17.00
2022-10-31T04:38:01.274Z,16.17
2022-10-31T04:40:35.202Z,15.80
2022-10-31T04:43:07.994Z,15.53
2022-10-31T04:45:40.703Z,14.73
2022-10-31T04:48:13.322Z,15.63
2022-10-31T04:50:45.913Z,15.87
2022-10-31T04:53:18.422Z,15.57
2022-10-31T04:55:52.499Z,15.50
2022-10-31T04:58:25.164Z,15.73
2022-10-31T05:00:57.982Z,17.17
2022-10-31T05:03:30.692Z,16.10
2022-10-31T05:06:03.263Z,16.20
2022-10-31T05:08:35.851Z,16.13
2022-10-31T05:11:09.804Z,16.47
2022-10-31T05:13:42.444Z,16.83
2022-10-31T05:16:14.983Z,15.77
2022-10-31T05:18:47.632Z,14.97
2022-10-31T05:21:20.230Z,15.83
2022-10-31T05:23:53.148Z,16.20
2022-10-31T05:26:27.055Z,15.53
2022-10-31T05:28:59.850Z,17.00
2022-10-31T05:31:33.447Z,16.10
2022-10-31T05:34:06.195Z,15.53
2022-10-31T05:36:38.733Z,15.73
2022-10-31T05:39:11.367Z,15.97
2022-10-31T05:41:45.248Z,16.53
2022-10-31T05:44:17.927Z,15.97
2022-10-31T05:46:50.494Z,16.33
2022-10-31T05:49:23.708Z,14.90
2022-10-31T05:51:57.926Z,16.30
2022-10-31T05:54:30.656Z,15.47
2022-10-31T05:57:04.873Z,15.87
2022-10-31T05:59:37.602Z,15.60
2022-10-31T06:02:10.252Z,15.30
2022-10-31T06:04:42.817Z,15.83
2022-10-31T06:07:15.443Z,16.03
2022-10-31T06:09:48.005Z,16.27
2022-10-31T06:12:24.572Z,15.57
2022-10-31T06:14:57.151Z,15.67
2022-10-31T06:17:31.867Z,15.93
2022-10-31T06:20:05.033Z,15.80
2022-10-31T06:22:37.663Z,15.07
2022-10-31T06:25:10.467Z,15.20
2022-10-31T06:27:45.753Z,15.67
2022-10-31T06:30:18.394Z,16.10
2022-10-31T06:32:51.350Z,15.17
2022-10-31T06:35:24.026Z,16.07
2022-10-31T06:37:56.687Z,15.80
2022-10-31T06:40:30.231Z,16.27
2022-10-31T06:43:04.099Z,16.07
2022-10-31T06:45:36.704Z,15.70
2022-10-31T06:48:17.342Z,16.03
2022-10-31T06:50:51.540Z,16.33
2022-10-31T06:53:26.356Z,16.23
2022-10-31T06:55:58.945Z,16.27
2022-10-31T06:58:35.355Z,15.93
2022-10-31T07:01:08.260Z,15.23
2022-10-31T07:03:41.855Z,15.83
2022-10-31T07:06:14.505Z,15.13
2022-10-31T07:08:47.103Z,15.43
2022-10-31T07:11:19.658Z,15.53
2022-10-31T07:13:54.764Z,15.93
2022-10-31T07:16:27.417Z,15.63
2022-10-31T07:19:01.346Z,14.77
2022-10-31T07:21:33.985Z,15.07
2022-10-31T07:24:06.950Z,14.67
2022-10-31T07:26:39.521Z,14.40
2022-10-31T07:29:17.181Z,15.00
2022-10-31T07:31:49.862Z,15.20
2022-10-31T07:34:22.364Z,15.13
2022-10-31T07:36:55.277Z,15.47
2022-10-31T07:39:27.854Z,15.60
2022-10-31T07:42:00.572Z,15.13
2022-10-31T07:44:35.244Z,15.37
2022-10-31T07:47:09.703Z,15.43
2022-10-31T07:49:42.403Z,17.10
2022-10-31T07:52:15.057Z,16.93
2022-10-31T07:54:47.641Z,16.27
2022-10-31T07:57:24.147Z,16.40
2022-10-31T07:59:59.027Z,17.10
2022-10-31T08:02:31.583Z,17.13
2022-10-31T08:05:04.355Z,17.30
2022-10-31T08:07:38.194Z,17.70
2022-10-31T08:10:13.988Z,18.50
2022-10-31T08:12:46.556Z,18.43
2022-10-31T08:15:20.491Z,18.63
2022-10-31T08:17:53.172Z,19.30
2022-10-31T08:20:25.867Z,19.63
2022-10-31T08:22:59.200Z,19.03
2022-10-31T08:25:37.408Z,17.80
2022-10-31T08:28:12.058Z,18.67
2022-10-31T08:30:48.744Z,18.50
2022-10-31T08:33:21.313Z,19.43
2022-10-31T08:35:55.992Z,18.53
2022-10-31T08:38:28.887Z,19.50
2022-10-31T08:41:01.400Z,19.60
2022-10-31T08:43:38.694Z,20.37
2022-10-31T08:46:12.872Z,18.90
2022-10-31T08:48:45.696Z,19.13
2022-10-31T08:51:18.272Z,18.37
2022-10-31T08:53:50.945Z,20.00
2022-10-31T08:56:25.166Z,20.13
2022-10-31T08:58:57.905Z,19.27
2022-10-31T09:01:36.988Z,19.27
2022-10-31T09:04:09.625Z,19.47
2022-10-31T09:07:07.883Z,19.80
2022-10-31T09:09:36.537Z,18.93
2022-10-31T09:12:09.191Z,20.83
2022-10-31T09:14:41.763Z,21.40
2022-10-31T09:17:16.365Z,20.03
2022-10-31T09:19:49.131Z,20.03
2022-10-31T09:22:23.022Z,19.73
2022-10-31T09:24:59.388Z,20.47
2022-10-31T09:27:36.346Z,20.03
2022-10-31T09:30:11.631Z,19.80
2022-10-31T09:32:50.417Z,20.37
2022-10-31T09:35:26.422Z,20.23
2022-10-31T09:38:01.362Z,21.23
2022-10-31T09:40:36.822Z,20.67
2022-10-31T09:43:14.185Z,19.93
2022-10-31T09:45:53.650Z,21.60
2022-10-31T09:48:34.866Z,20.57
2022-10-31T09:51:09.014Z,22.73
2022-10-31T09:53:43.088Z,22.23
2022-10-31T09:56:17.629Z,20.93
2022-10-31T09:58:56.196Z,21.37
2022-10-31T10:01:35.461Z,22.23
2022-10-31T10:04:20.844Z,22.47
2022-10-31T10:06:56.551Z,25.80
2022-10-31T10:09:30.285Z,21.27
2022-10-31T10:12:08.494Z,21.87
2022-10-31T10:14:50.319Z,20.93
2022-10-31T10:17:28.086Z,22.40
2022-10-31T10:20:18.358Z,21.57
2022-10-31T10:23:00.311Z,21.10
2022-10-31T10:25:35.853Z,23.03
2022-10-31T10:28:17.065Z,21.03
2022-10-31T10:30:52.433Z,21.00
2022-10-31T10:33:27.109Z,21.90
2022-10-31T10:36:00.802Z,21.10
2022-10-31T10:38:38.500Z,41.80
2022-10-31T10:41:13.774Z,23.00
2022-10-31T10:46:46.962Z,21.47
2022-10-31T10:49:20.353Z,23.80
2022-10-31T10:52:13.215Z,22.43
2022-10-31T10:54:56.936Z,21.77
2022-10-31T10:57:35.220Z,21.60
2022-10-31T11:00:17.839Z,21.67
2022-10-31T11:02:50.674Z,22.17
2022-10-31T11:05:28.133Z,22.50
2022-10-31T11:08:00.793Z,23.03
2022-10-31T11:10:34.863Z,22.57
2022-10-31T11:13:19.550Z,22.57
2022-10-31T11:15:54.757Z,29.57
2022-10-31T11:18:27.836Z,23.53
2022-10-31T11:21:01.287Z,23.00
2022-10-31T11:23:34.445Z,22.53
2022-10-31T11:26:18.447Z,22.50
2022-10-31T11:28:58.395Z,24.87
2022-10-31T11:31:32.228Z,23.83
2022-10-31T11:34:05.878Z,23.93
2022-10-31T11:36:40.060Z,23.87
2022-10-31T11:39:19.156Z,24.53
2022-10-31T11:41:54.142Z,23.77
2022-10-31T11:44:28.425Z,24.33
2022-10-31T11:47:02.409Z,24.30
2022-10-31T11:49:36.908Z,22.47
2022-10-31T11:52:10.549Z,24.00
2022-10-31T11:54:44.500Z,24.47
2022-10-31T11:57:27.135Z,24.07
2022-10-31T12:00:01.349Z,23.83
2022-10-31T12:02:34.017Z,25.03
2022-10-31T12:05:10.030Z,25.03
2022-10-31T12:07:45.484Z,23.83
2022-10-31T12:10:21.037Z,26.63
2022-10-31T12:13:03.701Z,31.63
2022-10-31T12:15:37.511Z,26.70
2022-10-31T12:18:27.110Z,28.17
2022-10-31T12:21:08.451Z,26.60
2022-10-31T12:23:47.772Z,25.13
2022-10-31T12:26:22.918Z,23.80
2022-10-31T12:29:09.430Z,25.83
2022-10-31T12:31:47.541Z,24.53
2022-10-31T12:34:35.228Z,25.40
2022-10-31T12:37:12.285Z,24.20
2022-10-31T12:39:49.167Z,25.10
2022-10-31T12:42:26.181Z,24.10
2022-10-31T12:45:17.522Z,24.33
2022-10-31T12:47:57.990Z,24.20
2022-10-31T12:50:45.412Z,24.30
2022-10-31T12:53:23.509Z,21.60
2022-10-31T12:56:01.517Z,23.80
2022-10-31T12:58:35.644Z,23.27
2022-10-31T13:01:14.388Z,23.87
2022-10-31T13:03:49.433Z,23.30
2022-10-31T13:06:24.101Z,23.20
2022-10-31T13:08:58.630Z,24.13
2022-10-31T13:11:33.071Z,23.37
2022-10-31T13:14:09.438Z,23.00
2022-10-31T13:16:44.660Z,24.40
2022-10-31T13:19:18.872Z,23.73
2022-10-31T13:21:56.349Z,23.83
2022-10-31T13:24:32.753Z,23.30
2022-10-31T13:27:11.419Z,22.80
2022-10-31T13:29:46.132Z,22.53
2022-10-31T13:32:20.947Z,24.23
2022-10-31T13:34:55.026Z,30.00
2022-10-31T13:37:31.913Z,24.60
2022-10-31T13:40:11.657Z,29.20
2022-10-31T13:42:51.503Z,28.63
2022-10-31T13:45:25.621Z,23.63
2022-10-31T13:48:01.284Z,24.67
2022-10-31T13:50:34.711Z,25.23
2022-10-31T13:53:14.772Z,24.53
2022-10-31T13:55:48.056Z,23.53
2022-10-31T13:58:25.223Z,24.80
2022-10-31T14:01:05.508Z,25.23
2022-10-31T14:04:03.635Z,24.23
2022-10-31T14:06:44.696Z,26.97
2022-10-31T14:09:25.320Z,25.97
2022-10-31T14:11:58.995Z,27.43
2022-10-31T14:14:36.611Z,29.10
2022-10-31T14:17:17.963Z,30.83
2022-10-31T14:20:22.776Z,30.20
2022-10-31T14:22:55.543Z,29.77
2022-10-31T14:25:30.154Z,30.03
2022-10-31T14:28:04.283Z,30.40
2022-10-31T14:30:38.025Z,31.83
2022-10-31T14:33:14.826Z,31.67
2022-10-31T14:35:53.529Z,31.40
2022-10-31T14:38:56.801Z,33.13
2022-10-31T14:41:40.260Z,34.60
2022-10-31T14:44:42.680Z,33.30
2022-10-31T14:47:20.824Z,32.40
2022-10-31T14:50:05.190Z,34.57
2022-10-31T14:52:40.051Z,32.00
2022-10-31T14:55:14.111Z,35.23
2022-10-31T14:57:49.969Z,34.60
2022-10-31T15:00:23.652Z,35.27
2022-10-31T15:03:03.189Z,34.90
2022-10-31T15:05:36.995Z,35.77
2022-10-31T15:08:29.012Z,36.63
2022-10-31T15:11:07.495Z,35.20
2022-10-31T15:13:43.928Z,35.37
2022-10-31T15:16:18.180Z,41.10
2022-10-31T15:18:53.560Z,37.93
2022-10-31T15:21:29.089Z,36.57
2022-10-31T15:24:06.523Z,37.87
2022-10-31T15:26:46.653Z,36.40
2022-10-31T15:29:22.400Z,38.20
2022-10-31T15:31:58.464Z,38.27
2022-10-31T15:34:34.777Z,37.57
2022-10-31T15:37:11.327Z,36.60
2022-10-31T15:39:45.923Z,38.03
2022-10-31T15:42:23.323Z,37.23
2022-10-31T15:45:03.438Z,40.30
2022-10-31T15:47:36.328Z,51.70
2022-10-31T15:50:20.283Z,44.67
2022-10-31T15:52:53.179Z,46.00
2022-10-31T15:55:28.918Z,44.90
2022-10-31T15:58:12.081Z,43.63
2022-10-31T16:00:45.012Z,47.07
2022-10-31T16:03:24.897Z,46.13
2022-10-31T16:05:58.456Z,45.40
2022-10-31T16:08:35.266Z,47.00
2022-10-31T16:11:23.139Z,47.43
2022-10-31T16:13:57.819Z,46.90
2022-10-31T16:16:36.031Z,46.67
2022-10-31T16:19:17.043Z,47.93
2022-10-31T16:21:50.751Z,48.77
2022-10-31T16:24:28.910Z,53.23
2022-10-31T16:27:05.981Z,55.23
2022-10-31T16:29:41.225Z,52.10
2022-10-31T16:32:27.071Z,51.87
2022-10-31T16:35:04.525Z,52.13
2022-10-31T16:37:39.095Z,49.50
2022-10-31T16:40:13.021Z,51.77
2022-10-31T16:42:48.162Z,52.13
2022-10-31T16:45:22.655Z,50.80
2022-10-31T16:47:55.357Z,51.60
2022-10-31T16:50:28.953Z,50.17
2022-10-31T16:53:13.863Z,51.13
2022-10-31T16:55:47.909Z,52.73
2022-10-31T16:58:23.783Z,49.60
2022-10-31T17:00:56.449Z,51.10
2022-10-31T17:03:29.199Z,49.73
2022-10-31T17:06:02.007Z,51.70
2022-10-31T17:08:34.632Z,52.03
2022-10-31T17:11:07.655Z,50.33
2022-10-31T17:13:41.661Z,50.37
2022-10-31T17:16:14.791Z,49.43
2022-10-31T17:18:47.557Z,51.33
2022-10-31T17:21:23.001Z,53.17
2022-10-31T17:23:55.847Z,53.47
2022-10-31T17:26:30.991Z,52.33
2022-10-31T17:29:07.150Z,53.73
2022-10-31T17:31:41.573Z,49.63
2022-10-31T17:34:14.448Z,52.90
2022-10-31T17:36:51.004Z,52.47
2022-10-31T17:39:23.955Z,49.40
2022-10-31T17:41:58.550Z,46.53
2022-10-31T17:44:32.644Z,50.83
2022-10-31T17:47:06.228Z,51.33
2022-10-31T17:49:40.527Z,45.27
2022-10-31T17:52:13.122Z,46.23
2022-10-31T17:54:45.731Z,40.40
2022-10-31T17:57:18.455Z,42.10
2022-10-31T17:59:52.362Z,44.47
2022-10-31T18:02:25.209Z,42.97
2022-10-31T18:04:58.086Z,39.60
2022-10-31T18:07:30.733Z,39.40
2022-10-31T18:10:03.324Z,41.70
2022-10-31T18:12:36.645Z,40.97
2022-10-31T18:15:11.080Z,40.63
2022-10-31T18:17:43.673Z,41.10
2022-10-31T18:20:16.304Z,42.20
2022-10-31T18:22:48.919Z,40.67
2022-10-31T18:25:21.463Z,42.10
2022-10-31T18:27:54.080Z,41.90
2022-10-31T18:30:28.696Z,43.60
2022-10-31T18:33:02.028Z,44.33
2022-10-31T18:35:36.033Z,45.40
2022-10-31T18:38:09.632Z,46.43
2022-10-31T18:40:42.629Z,46.13
2022-10-31T18:43:15.155Z,49.00
2022-10-31T18:45:52.296Z,49.00
2022-10-31T18:48:28.363Z,49.90
2022-10-31T18:53:40.461Z,52.00
2022-10-31T18:56:13.934Z,46.40
2022-10-31T18:58:48.321Z,46.33
2022-10-31T19:01:22.611Z,45.60
2022-10-31T19:03:58.903Z,44.07
2022-10-31T19:06:31.839Z,45.80
2022-10-31T19:09:09.150Z,44.73
2022-10-31T19:11:46.088Z,46.77
2022-10-31T19:14:18.757Z,44.80
2022-10-31T19:16:53.005Z,46.70
2022-10-31T19:19:28.649Z,45.63
2022-10-31T19:22:01.768Z,46.83
2022-10-31T19:24:34.371Z,47.20
2022-10-31T19:27:07.176Z,45.53
2022-10-31T19:29:42.061Z,47.53
2022-10-31T19:32:16.019Z,45.87
2022-10-31T19:34:48.526Z,47.73
2022-10-31T19:37:21.220Z,45.30
2022-10-31T19:39:53.862Z,46.07
2022-10-31T19:42:26.407Z,46.60
2022-10-31T19:45:00.138Z,45.90
2022-10-31T19:47:34.222Z,45.80
2022-10-31T19:50:07.318Z,45.40
2022-10-31T19:52:40.163Z,44.13
2022-10-31T19:55:12.667Z,46.27
2022-10-31T19:58:11.116Z,44.50
2022-10-31T20:00:39.918Z,45.00
2022-10-31T20:03:18.403Z,43.43
2022-10-31T20:05:54.063Z,43.93
2022-10-31T20:08:28.075Z,43.37
2022-10-31T20:11:02.026Z,41.93
2022-10-31T20:13:34.711Z,42.53
2022-10-31T20:16:08.826Z,41.27
2022-10-31T20:18:43.435Z,39.53
2022-10-31T20:21:17.096Z,36.80
2022-10-31T20:23:49.655Z,38.63
2022-10-31T20:26:22.348Z,39.00
2022-10-31T20:28:56.306Z,37.73
2022-10-31T20:31:33.200Z,38.53
2022-10-31T20:34:13.742Z,38.77
2022-10-31T20:36:49.514Z,36.43
2022-10-31T20:39:24.182Z,37.80
2022-10-31T20:41:58.372Z,33.87
2022-10-31T20:44:30.951Z,35.83
2022-10-31T20:47:04.145Z,34.97
2022-10-31T20:49:38.074Z,34.10
2022-10-31T20:52:11.082Z,36.50
2022-10-31T20:54:43.669Z,35.93
2022-10-31T20:57:16.422Z,35.80
2022-10-31T20:59:49.938Z,33.67
2022-10-31T21:02:22.730Z,34.63
2022-10-31T21:04:56.735Z,35.97
2022-10-31T21:07:31.081Z,33.13
2022-10-31T21:10:04.516Z,33.87
2022-10-31T21:12:37.269Z,35.27
2022-10-31T21:15:10.890Z,34.60
2022-10-31T21:17:43.379Z,34.17
2022-10-31T21:20:20.297Z,36.23
2022-10-31T21:22:54.544Z,34.73
2022-10-31T21:25:28.325Z,35.60
2022-10-31T21:28:01.310Z,35.57
2022-10-31T21:30:34.085Z,36.77
2022-10-31T21:33:09.451Z,36.27
2022-10-31T21:35:49.225Z,35.13
2022-10-31T21:38:21.834Z,35.73
2022-10-31T21:40:59.239Z,35.17
2022-10-31T21:43:32.189Z,34.57
2022-10-31T21:46:05.066Z,33.60
2022-10-31T21:48:41.853Z,34.93
2022-10-31T21:51:16.844Z,34.63
2022-10-31T21:54:07.441Z,35.10
2022-10-31T21:56:40.150Z,34.10
2022-10-31T21:59:19.036Z,36.03
2022-10-31T22:01:51.832Z,35.73
2022-10-31T22:04:24.590Z,34.67
2022-10-31T22:07:00.880Z,35.63
2022-10-31T22:09:35.595Z,35.90
2022-10-31T22:12:09.177Z,35.00
2022-10-31T22:17:15.318Z,34.57
2022-10-31T22:19:49.170Z,37.07
2022-10-31T22:22:23.103Z,37.13
2022-10-31T22:24:55.672Z,36.90
2022-10-31T22:27:28.201Z,35.93
2022-10-31T22:30:00.928Z,35.63
2022-10-31T22:32:34.802Z,37.43
2022-10-31T22:35:07.811Z,37.60
2022-10-31T22:37:41.731Z,37.37
2022-10-31T22:40:14.354Z,35.20
2022-10-31T22:42:46.960Z,36.87
2022-10-31T22:45:19.628Z,36.63
2022-10-31T22:47:52.201Z,36.13
2022-10-31T22:50:24.772Z,36.80
2022-10-31T22:52:58.753Z,39.20
2022-10-31T22:55:31.377Z,37.90
2022-10-31T22:58:04.229Z,38.47
2022-10-31T23:00:36.756Z,38.83
2022-10-31T23:03:09.677Z,39.33
2022-10-31T23:05:42.404Z,37.97
2022-10-31T23:08:16.400Z,40.77
2022-10-31T23:10:48.920Z,41.77
2022-10-31T23:13:39.707Z,42.83
2022-10-31T23:16:13.195Z,42.47
2022-10-31T23:18:50.357Z,44.20
2022-10-31T23:21:43.694Z,43.93
2022-10-31T23:24:17.637Z,44.90
2022-10-31T23:27:07.666Z,45.77
2022-10-31T23:29:41.735Z,43.57
2022-10-31T23:32:16.709Z,42.33
2022-10-31T23:34:50.245Z,43.13
2022-10-31T23:37:26.118Z,44.53
2022-10-31T23:40:00.299Z,42.80
2022-10-31T23:42:32.696Z,41.80
2022-10-31T23:45:05.498Z,41.47
2022-10-31T23:47:42.405Z,42.70
2022-10-31T23:50:16.258Z,43.10
2022-10-31T23:52:48.940Z,42.90
2022-10-31T23:55:22.853Z,42.67
2022-10-31T23:57:56.656Z,41.93
